Airfield :
LOGIN :

Register | Disclaimer

   EN    FR    IT 

 










Legend :    VFR   Marginal VFR   IFR   Intensive IFR   Very Intensive IFR
Visi :
Ceiling :
>= 8 km
>= 3000ft
5 to 8 km
1000 to 3000 ft
1500m to 5 km
500 to 1000 ft
800 to 1500m
200 to 500 ft
< 800m
< 200 ft
Symbols :   Thunderstorms  Fog  Heavy snow  Heavy precipitations  Wind > 20 kt
SIGMETs :     Misc.  Thunderstorms  Icing  Turbulence  Mountain Waves  Volcanic Ashes






- Airport Elevation : 400 ft
- IATA code : BNX


LQBK - Banja Luka

CURRENT METAR :
  • 011100Z 20005KT CAVOK 11/M04 Q1019 NOSIG

EXPIRED METARs :
  • 011030Z 19006KT CAVOK 10/M05 Q1019 NOSIG
  • 011000Z 20006KT 160V250 CAVOK 10/M04 Q1020 NOSIG
  • 010930Z 20007KT CAVOK 09/M04 Q1020 NOSIG
  • 010900Z 20007KT CAVOK 08/M04 Q1020 NOSIG
  • 010830Z 18007KT CAVOK 07/M04 Q1020 NOSIG

TAF TAF LQBK
Valid from the 01 at 06:00 until the 02 at 06:00 UTC


010500Z 0106/0206 20006KT CAVOK TX09/0113Z TNM01/0106Z



MET'MAP, your aeronautical weather chart ! - Copyright ORBIFLY December 2007 - Disclaimer

ORBIFLY MET'MAP TEAM :

Programming & Development : Alexandra Zaïnal
Original concept : Baudouin d'Aumeries
Technical & hardware support : Manuel Goepfert
Assistance : Marc-Olivier Méhu




SOURCES & CREDITS :

   NOAA